WD9EKA Weather Reports


Display with metric or nautical units.
time (UTC)temp
F
wind
direction
speed
MPH
gust
MPH
rain 1hr
in
rain 24hr
in
rain mn
in
humidity
%
barometer
mb
20240612182400 84 218 4.0 5.0 0.00 0.00 0.00 45 1016.0
20240612181834 84 236 4.0 5.0 0.00 0.00 0.00 44 1015.9
20240612181331 84 236 4.0 8.0 0.00 0.00 0.00 44 1016.2
20240612180323 83 77 2.0 4.0 0.00 0.00 0.00 45 1015.8
20240612175804 83 230 2.0 4.0 0.00 0.00 0.00 47 1016.3
20240612175300 83 170 1.0 3.0 0.00 0.00 0.00 44 1016.2
20240612174755 82 204 3.0 4.0 0.00 0.00 0.00 46 1016.3
20240612173731 83 249 4.0 5.0 0.00 0.00 0.00 45 1016.5
20240612173227 82 228 5.0 6.0 0.00 0.00 0.00 45 1016.4
20240612172724 82 197 3.0 4.0 0.00 0.00 0.00 45 1016.4
20240612172204 82 223 7.0 9.0 0.00 0.00 0.00 44 1016.4
20240612171659 82 223 2.0 3.0 0.00 0.00 0.00 48 1016.5
20240612171155 81 212 3.0 5.0 0.00 0.00 0.00 48 1016.4
20240612170652 82 227 6.0 6.0 0.00 0.00 0.00 44 1016.6
20240612170147 82 242 6.0 8.0 0.00 0.00 0.00 45 1016.6
20240612165644 82 241 7.0 9.0 0.00 0.00 0.00 43 1016.7
20240612165140 81 245 8.0 10.0 0.00 0.00 0.00 45 1016.5
20240612164635 81 194 0.0 2.0 0.00 0.00 0.00 48 1016.9
20240612164131 80 186 2.0 2.0 0.00 0.00 0.00 47 1016.5
20240612163627 81 205 5.0 6.0 0.00 0.00 0.00 46 1016.8
20240612162620 81 213 5.0 5.0 0.00 0.00 0.00 44 1016.7
20240612162116 80 210 2.0 3.0 0.00 0.00 0.00 45 1016.6
20240612161108 79 197 3.0 5.0 0.00 0.00 0.00 44 1016.7
20240612160604 80 236 7.0 9.0 0.00 0.00 0.00 43 1016.9
20240612155556 79 221 6.0 8.0 0.00 0.00 0.00 44 1016.7
20240612155036 79 214 6.0 8.0 0.00 0.00 0.00 43 1016.8
20240612154532 79 173 4.0 5.0 0.00 0.00 0.00 45 1016.8
20240612153524 79 210 4.0 6.0 0.00 0.00 0.00 42 1016.8
20240612153005 79 177 1.0 2.0 0.00 0.00 0.00 43 1017.0
20240612151926 78 222 4.0 6.0 0.00 0.00 0.00 43 1017.1
20240612151404 77 218 3.0 4.0 0.00 0.00 0.00 43 1017.1
20240612150901 77 193 3.0 3.0 0.00 0.00 0.00 44 1017.2
20240612150355 77 220 2.0 3.0 0.00 0.00 0.00 43 1017.1
20240612145833 77 212 5.0 6.0 0.00 0.00 0.00 45 1017.2
20240612145331 77 173 0.0 1.0 0.00 0.00 0.00 45 1017.3
20240612144828 77 222 5.0 6.0 0.00 0.00 0.00 44 1017.3
20240612144323 77 186 3.0 3.0 0.00 0.00 0.00 44 1017.1
20240612143804 76 215 2.0 3.0 0.00 0.00 0.00 45 1017.2
20240612143300 75 236 4.0 5.0 0.00 0.00 0.00 45 1017.2
20240612142756 75 201 6.0 6.0 0.00 0.00 0.00 47 1017.4
20240612142235 75 220 3.0 5.0 0.00 0.00 0.00 46 1017.4
20240612141732 75 165 3.0 5.0 0.00 0.00 0.00 47 1017.3
20240612141228 75 205 1.0 2.0 0.00 0.00 0.00 47 1017.5
20240612140724 74 208 3.0 4.0 0.00 0.00 0.00 48 1017.2
20240612140204 74 219 4.0 5.0 0.00 0.00 0.00 48 1017.5
20240612135700 74 170 1.0 1.0 0.00 0.00 0.00 51 1017.2
20240612134634 73 174 0.0 0.0 0.00 0.00 0.00 50 1017.4
20240612134131 73 210 2.0 2.0 0.00 0.00 0.00 52 1017.6
20240612133628 72 179 0.0 1.0 0.00 0.00 0.00 52 1017.6
20240612133124 72 154 0.0 0.0 0.00 0.00 0.00 55 1017.5
20240612132604 71 186 2.0 3.0 0.00 0.00 0.00 53 1017.5
20240612132059 70 197 2.0 2.0 0.00 0.00 0.00 54 1017.5
20240612131556 70 182 0.0 0.0 0.00 0.00 0.00 58 1017.6
20240612131034 69 193 0.0 1.0 0.00 0.00 0.00 62 1017.6
20240612130532 68 172 2.0 2.0 0.00 0.00 0.00 63 1017.6
20240612125526 66 179 0.0 0.0 0.00 0.00 0.00 66 1017.6
20240612124500 65 189 0.0 0.0 0.00 0.00 0.00 70 1017.6
20240612123452 62 167 0.0 0.0 0.00 0.00 0.00 76 1017.5
20240612122934 61 183 0.0 0.0 0.00 0.00 0.00 76 1017.4
20240612122428 60 167 0.0 0.0 0.00 0.00 0.00 80 1017.6
20240612121908 60 136 0.0 0.0 0.00 0.00 0.00 82 1017.4
20240612121405 59 148 0.0 0.0 0.00 0.00 0.00 84 1017.4
20240612120900 58 146 0.0 0.0 0.00 0.00 0.00 87 1017.5
20240612120340 57 159 0.0 0.0 0.00 0.00 0.00 92 1017.4
20240612115836 56 164 0.0 0.0 0.00 0.00 0.00 95 1017.6
20240612114828 55 164 0.0 0.0 0.00 0.00 0.00 98 1017.6
20240612114324 54 164 0.0 0.0 0.00 0.00 0.00 98 1017.5
20240612113820 53 165 0.0 0.0 0.00 0.00 0.00 99 1017.6
20240612112812 52 158 0.0 0.0 0.00 0.00 0.00 99 1017.4
20240612112308 52 159 0.0 0.0 0.00 0.00 0.00 99 1017.5
20240612111804 52 159 0.0 0.0 0.00 0.00 0.00 99 1017.4
20240612111300 51 159 0.0 0.0 0.00 0.00 0.00 99 1017.2
20240612110756 51 159 0.0 0.0 0.00 0.00 0.00 99 1017.5
20240612110252 51 159 0.0 0.0 0.00 0.00 0.00 99 1017.4
20240612105748 51 159 0.0 0.0 0.00 0.00 0.00 99 1017.3
20240612104740 51 159 0.0 0.0 0.00 0.00 0.00 99 1017.2
20240612104236 51 159 0.0 0.0 0.00 0.00 0.00 99 1017.1
20240612103732 51 159 0.0 0.0 0.00 0.00 0.00 99 1017.1
20240612103228 51 159 0.0 0.0 0.00 0.00 0.00 99 1017.0
20240612102724 51 159 0.0 0.0 0.00 0.00 0.00 99 1017.0
20240612102220 51 158 0.0 0.0 0.00 0.00 0.00 99 1017.1
20240612101716 51 159 0.0 0.0 0.00 0.00 0.00 98 1016.8
20240612101212 51 159 0.0 0.0 0.00 0.00 0.00 98 1017.1
20240612100205 51 159 0.0 0.0 0.00 0.00 0.00 98 1016.9
20240612095700 51 159 0.0 0.0 0.00 0.00 0.00 98 1017.0
20240612095156 52 159 0.0 0.0 0.00 0.00 0.00 98 1016.7
20240612094652 52 159 0.0 0.0 0.00 0.00 0.00 98 1016.7
20240612094148 51 159 0.0 0.0 0.00 0.00 0.00 98 1016.7
20240612093644 51 159 0.0 0.0 0.00 0.00 0.00 98 1016.9
20240612093140 52 158 0.0 0.0 0.00 0.00 0.00 98 1016.6
20240612092636 52 158 0.0 0.0 0.00 0.00 0.00 98 1016.8
20240612092132 52 158 0.0 0.0 0.00 0.00 0.00 98 1016.7
20240612091628 52 159 0.0 0.0 0.00 0.00 0.00 98 1016.6
20240612091124 52 158 0.0 0.0 0.00 0.00 0.00 98 1016.6
20240612090620 52 159 0.0 0.0 0.00 0.00 0.00 98 1016.6
20240612090116 52 159 0.0 0.0 0.00 0.00 0.00 98 1016.6
20240612085612 52 159 0.0 0.0 0.00 0.00 0.00 97 1016.5
20240612085108 52 159 0.0 0.0 0.00 0.00 0.00 97 1016.5
20240612084605 52 159 0.0 0.0 0.00 0.00 0.00 97 1016.3
20240612084100 52 159 0.0 0.0 0.00 0.00 0.00 97 1016.5
20240612083556 52 159 0.0 0.0 0.00 0.00 0.00 97 1016.4
20240612083036 52 159 0.0 0.0 0.00 0.00 0.00 97 1016.4
20240612082532 52 159 0.0 0.0 0.00 0.00 0.00 97 1016.1
20240612082028 52 159 0.0 0.0 0.00 0.00 0.00 97 1016.1
20240612081524 52 159 0.0 0.0 0.00 0.00 0.00 97 1016.1
20240612075435 52 159 0.0 0.0 0.00 0.00 0.00 96 1016.1
20240612074428 52 159 0.0 0.0 0.00 0.00 0.00 96 1016.1
20240612073924 52 159 0.0 0.0 0.00 0.00 0.00 95 1016.1
20240612073404 52 159 0.0 0.0 0.00 0.00 0.00 95 1016.3
20240612072900 52 159 0.0 0.0 0.00 0.00 0.00 95 1016.1
20240612071332 53 159 0.0 0.0 0.00 0.00 0.00 96 1016.0
20240612070828 53 159 0.0 0.0 0.00 0.00 0.00 96 1016.0
20240612070324 53 159 0.0 0.0 0.00 0.00 0.00 96 1016.2
20240612065300 53 159 0.0 0.0 0.00 0.00 0.00 95 1016.1
20240612064252 53 159 0.0 0.0 0.00 0.00 0.00 96 1015.9
20240612063734 53 158 0.0 0.0 0.00 0.00 0.00 96 1016.0
20240612063228 53 159 0.0 0.0 0.00 0.00 0.00 96 1015.8
20240612062709 53 159 0.0 0.0 0.00 0.00 0.00 96 1016.0
20240612062205 53 159 0.0 0.0 0.00 0.00 0.00 95 1016.1
20240612061701 53 159 0.0 0.0 0.00 0.00 0.00 95 1015.9
20240612060135 54 158 0.0 0.0 0.00 0.00 0.00 95 1016.1
20240612055628 54 158 0.0 0.0 0.00 0.00 0.00 95 1015.7
20240612055124 54 158 0.0 0.0 0.00 0.00 0.00 95 1015.9
20240612054620 54 158 0.0 0.0 0.00 0.00 0.00 95 1016.0
20240612054117 54 158 0.0 0.0 0.00 0.00 0.00 95 1015.9
20240612053613 54 158 0.0 0.0 0.00 0.00 0.00 95 1016.0
20240612053108 54 158 0.0 0.0 0.00 0.00 0.00 94 1016.2
20240612052606 54 159 0.0 0.0 0.00 0.00 0.00 94 1016.2
20240612052044 54 159 0.0 0.0 0.00 0.00 0.00 93 1016.0
20240612051534 54 158 0.0 0.0 0.00 0.00 0.00 93 1016.1
20240612051020 54 159 0.0 0.0 0.00 0.00 0.00 93 1016.2
20240612050517 55 158 0.0 0.0 0.00 0.00 0.00 93 1016.5
20240612045956 55 158 0.0 0.0 0.00 0.00 0.00 93 1016.3
20240612045452 55 158 0.0 0.0 0.00 0.00 0.00 92 1016.4
20240612044934 55 158 0.0 0.0 0.00 0.00 0.00 92 1016.2
20240612043924 55 158 0.0 0.0 0.00 0.00 0.00 91 1016.2
20240612043405 55 158 0.0 0.0 0.00 0.00 0.00 90 1016.3
20240612042400 55 158 0.0 0.0 0.00 0.00 0.00 90 1016.0
20240612041852 56 158 0.0 0.0 0.00 0.00 0.00 90 1016.0
20240612040828 56 158 0.0 0.0 0.00 0.00 0.00 89 1015.9
20240612040324 56 158 0.0 0.0 0.00 0.00 0.00 89 1015.9
20240612035805 56 158 0.0 0.0 0.00 0.00 0.00 89 1015.7
20240612035300 57 158 0.0 0.0 0.00 0.00 0.00 88 1015.8
20240612034757 57 158 0.0 0.0 0.00 0.00 0.00 88 1015.8
20240612034252 57 158 0.0 0.0 0.00 0.00 0.00 87 1015.8
20240612033735 57 158 0.0 0.0 0.00 0.00 0.00 87 1016.1
20240612033228 57 158 0.0 0.0 0.00 0.00 0.00 88 1016.0
20240612032725 56 159 0.0 0.0 0.00 0.00 0.00 86 1016.1
20240612032205 57 159 0.0 0.0 0.00 0.00 0.00 85 1015.6
20240612031700 57 159 0.0 0.0 0.00 0.00 0.00 84 1015.7
20240612031156 58 159 0.0 0.0 0.00 0.00 0.00 83 1015.8
20240612030652 58 158 0.0 0.0 0.00 0.00 0.00 83 1015.6
20240612030149 58 158 0.0 0.0 0.00 0.00 0.00 82 1015.9
20240612025140 58 159 0.0 0.0 0.00 0.00 0.00 81 1016.1
20240612024637 58 158 0.0 0.0 0.00 0.00 0.00 80 1015.8
20240612024132 59 158 0.0 0.0 0.00 0.00 0.00 80 1015.7
20240612023124 59 158 0.0 0.0 0.00 0.00 0.00 79 1015.7
20240612022621 60 158 0.0 0.0 0.00 0.00 0.00 79 1015.6
20240612022117 59 158 0.0 0.0 0.00 0.00 0.00 80 1015.4
20240612021613 60 159 0.0 0.0 0.00 0.00 0.00 79 1015.4
20240612021109 60 190 0.0 0.0 0.00 0.00 0.00 79 1015.5
20240612020605 61 193 0.0 0.0 0.00 0.00 0.00 79 1015.2
20240612020101 61 192 0.0 0.0 0.00 0.00 0.00 77 1015.3
20240612015556 61 192 0.0 0.0 0.00 0.00 0.00 77 1015.3
20240612015034 61 190 0.0 0.0 0.00 0.00 0.00 76 1015.2
20240612014534 62 192 0.0 0.0 0.00 0.00 0.00 75 1015.3
20240612014028 62 192 0.0 0.0 0.00 0.00 0.00 74 1015.2
20240612013524 63 207 0.0 0.0 0.00 0.00 0.00 73 1015.2
20240612013005 63 156 0.0 0.0 0.00 0.00 0.00 72 1015.2
20240612012500 63 179 0.0 0.0 0.00 0.00 0.00 72 1015.5
20240612011956 64 207 0.0 0.0 0.00 0.00 0.00 70 1015.0
20240612011434 64 194 0.0 0.0 0.00 0.00 0.00 69 1015.2
20240612010932 65 194 0.0 0.0 0.00 0.00 0.00 68 1015.0
20240612010428 66 194 0.0 0.0 0.00 0.00 0.00 69 1015.2
20240612005924 66 194 0.0 0.0 0.00 0.00 0.00 65 1014.9
20240612005405 67 194 0.0 0.0 0.00 0.00 0.00 63 1015.2
20240612004900 67 194 0.0 0.0 0.00 0.00 0.00 62 1015.0
20240612004356 68 194 0.0 0.0 0.00 0.00 0.00 60 1015.1
20240612003834 69 194 0.0 0.0 0.00 0.00 0.00 59 1015.0
20240612003332 71 194 0.0 0.0 0.00 0.00 0.00 55 1015.2
20240612002828 72 194 0.0 0.0 0.00 0.00 0.00 56 1015.2
20240612002324 72 194 0.0 0.0 0.00 0.00 0.00 54 1015.3
20240612001805 73 194 0.0 0.0 0.00 0.00 0.00 54 1015.2
20240612000757 74 194 0.0 0.0 0.00 0.00 0.00 54 1015.3
20240611235734 76 194 0.0 0.0 0.00 0.00 0.00 48 1015.3
20240611235228 76 175 0.0 0.0 0.00 0.00 0.00 46 1015.4
20240611234725 77 199 0.0 1.0 0.00 0.00 0.00 43 1015.1
20240611233701 75 141 0.0 0.0 0.00 0.00 0.00 46 1015.2
20240611233156 74 141 0.0 0.0 0.00 0.00 0.00 50 1015.2
20240611232634 73 141 0.0 0.0 0.00 0.00 0.00 51 1015.3
20240611232132 74 141 0.0 0.0 0.00 0.00 0.00 49 1015.1
20240611231628 75 141 0.0 0.0 0.00 0.00 0.00 50 1015.2
20240611231125 76 253 0.0 1.0 0.00 0.00 0.00 43 1015.2
20240611230605 77 306 0.0 1.0 0.00 0.00 0.00 43 1015.0
20240611230101 77 168 0.0 1.0 0.00 0.00 0.00 33 1015.1
20240611225558 77 228 0.0 2.0 0.00 0.00 0.00 32 1015.2
20240611225053 78 158 0.0 0.0 0.00 0.00 0.00 39 1015.0
20240611224534 78 200 1.0 2.0 0.00 0.00 0.00 33 1015.2
20240611224029 79 219 1.0 2.0 0.00 0.00 0.00 31 1015.1
20240611223509 80 256 3.0 3.0 0.00 0.00 0.00 31 1015.2
20240611223006 79 172 0.0 0.0 0.00 0.00 0.00 32 1015.2
20240611221957 80 190 0.0 0.0 0.00 0.00 0.00 29 1015.2
20240611221452 79 200 0.0 1.0 0.00 0.00 0.00 30 1015.2
20240611220948 79 235 0.0 1.0 0.00 0.00 0.00 31 1015.3
20240611220445 81 124 0.0 0.0 0.00 0.00 0.00 33 1015.3
20240611215941 80 192 0.0 0.0 0.00 0.00 0.00 31 1015.3
20240611215437 79 61 1.0 2.0 0.00 0.00 0.00 32 1015.1
20240611214932 80 40 0.0 1.0 0.00 0.00 0.00 35 1015.4
20240611214429 78 200 0.0 1.0 0.00 0.00 0.00 34 1015.2
20240611213909 78 72 1.0 2.0 0.00 0.00 0.00 34 1015.3
20240611213405 78 148 0.0 1.0 0.00 0.00 0.00 34 1015.2
20240611212901 78 125 2.0 3.0 0.00 0.00 0.00 32 1015.3
20240611212357 79 155 0.0 0.0 0.00 0.00 0.00 34 1015.3
20240611211834 80 114 0.0 1.0 0.00 0.00 0.00 31 1015.4
20240611211333 79 152 0.0 0.0 0.00 0.00 0.00 31 1015.4
20240611210829 79 161 2.0 3.0 0.00 0.00 0.00 31 1015.5
20240611210324 78 265 1.0 1.0 0.00 0.00 0.00 31 1015.4
20240611205301 79 132 0.0 0.0 0.00 0.00 0.00 33 1015.7
20240611204741 79 323 3.0 4.0 0.00 0.00 0.00 30 1015.5
20240611204237 78 264 1.0 3.0 0.00 0.00 0.00 32 1015.6
20240611203733 78 63 3.0 4.0 0.00 0.00 0.00 31 1015.8
20240611203229 78 236 0.0 1.0 0.00 0.00 0.00 31 1015.8
20240611202709 78 304 1.0 2.0 0.00 0.00 0.00 34 1015.9
20240611202205 78 283 1.0 3.0 0.00 0.00 0.00 30 1015.7
20240611201701 77 214 1.0 2.0 0.00 0.00 0.00 32 1015.9
20240611201158 78 132 2.0 3.0 0.00 0.00 0.00 30 1015.9
20240611200653 78 231 2.0 3.0 0.00 0.00 0.00 31 1015.9
20240611200149 78 333 0.0 1.0 0.00 0.00 0.00 34 1016.0
20240611195645 78 257 3.0 4.0 0.00 0.00 0.00 31 1016.0
20240611195141 77 238 0.0 0.0 0.00 0.00 0.00 30 1016.0
20240611194637 78 144 0.0 1.0 0.00 0.00 0.00 34 1016.1
20240611194133 79 321 3.0 3.0 0.00 0.00 0.00 31 1016.2
20240611193629 78 170 0.0 2.0 0.00 0.00 0.00 35 1016.2
20240611193125 77 205 0.0 1.0 0.00 0.00 0.00 33 1016.2
20240611192621 78 197 2.0 3.0 0.00 0.00 0.00 31 1016.3
20240611192117 78 56 0.0 1.0 0.00 0.00 0.00 31 1016.4
20240611191053 75 170 0.0 2.0 0.00 0.00 0.00 33 1016.4
20240611190549 77 144 0.0 2.0 0.00 0.00 0.00 39 1016.2
20240611190046 75 17 0.0 1.0 0.00 0.00 0.00 32 1016.3
20240611185534 77 253 0.0 1.0 0.00 0.00 0.00 32 1016.3
20240611185034 76 195 1.0 1.0 0.00 0.00 0.00 33 1016.5
20240611184533 76 273 3.0 3.0 0.00 0.00 0.00 33 1016.5
20240611184013 76 208 3.0 4.0 0.00 0.00 0.00 32 1016.6
20240611183510 75 215 2.0 3.0 0.00 0.00 0.00 32 1016.8
20240611183006 76 242 4.0 5.0 0.00 0.00 0.00 36 1016.8
20240611182501 75 153 1.0 2.0 0.00 0.00 0.00 33 1016.8